sensor_id;sensor_type;location;lat;lon;timestamp;pressure;altitude;pressure_sealevel;temperature;humidity
58662;BME280;44432;49.786;22.760;2022-10-17T00:00:35;100478.73;;;9.83;77.44
58662;BME280;44432;49.786;22.760;2022-10-17T00:03:26;100482.77;;;9.82;77.42
58662;BME280;44432;49.786;22.760;2022-10-17T00:05:56;100486.02;;;9.80;77.53
58662;BME280;44432;49.786;22.760;2022-10-17T00:08:27;100486.06;;;9.78;77.62
58662;BME280;44432;49.786;22.760;2022-10-17T00:10:59;100486.73;;;9.77;77.66
58662;BME280;44432;49.786;22.760;2022-10-17T00:13:30;100488.66;;;9.75;77.80
58662;BME280;44432;49.786;22.760;2022-10-17T00:16:01;100490.77;;;9.75;77.92
58662;BME280;44432;49.786;22.760;2022-10-17T00:18:31;100489.18;;;9.75;77.90
58662;BME280;44432;49.786;22.760;2022-10-17T00:21:02;100494.27;;;9.77;78.00
58662;BME280;44432;49.786;22.760;2022-10-17T00:23:33;100491.21;;;9.77;77.92
58662;BME280;44432;49.786;22.760;2022-10-17T00:26:06;100492.44;;;9.77;77.87
58662;BME280;44432;49.786;22.760;2022-10-17T00:28:36;100491.28;;;9.77;77.91
58662;BME280;44432;49.786;22.760;2022-10-17T00:31:07;100494.66;;;9.75;78.00
58662;BME280;44432;49.786;22.760;2022-10-17T00:33:38;100498.23;;;9.73;78.07
58662;BME280;44432;49.786;22.760;2022-10-17T00:36:10;100495.75;;;9.70;78.15
58662;BME280;44432;49.786;22.760;2022-10-17T00:38:40;100494.63;;;9.69;78.34
58662;BME280;44432;49.786;22.760;2022-10-17T00:41:14;100491.60;;;9.67;78.32
58662;BME280;44432;49.786;22.760;2022-10-17T00:43:57;100490.28;;;9.66;78.43
58662;BME280;44432;49.786;22.760;2022-10-17T00:46:29;100493.71;;;9.65;78.41
58662;BME280;44432;49.786;22.760;2022-10-17T00:49:03;100486.89;;;9.62;78.37
58662;BME280;44432;49.786;22.760;2022-10-17T00:51:40;100490.41;;;9.62;78.42
58662;BME280;44432;49.786;22.760;2022-10-17T00:54:12;100488.55;;;9.60;78.53
58662;BME280;44432;49.786;22.760;2022-10-17T00:56:43;100488.06;;;9.58;78.53
58662;BME280;44432;49.786;22.760;2022-10-17T00:59:15;100486.05;;;9.56;78.60
58662;BME280;44432;49.786;22.760;2022-10-17T01:01:50;100483.54;;;9.51;78.70
58662;BME280;44432;49.786;22.760;2022-10-17T01:04:23;100487.14;;;9.49;78.81
58662;BME280;44432;49.786;22.760;2022-10-17T01:06:53;100485.21;;;9.47;78.78
58662;BME280;44432;49.786;22.760;2022-10-17T01:09:24;100479.39;;;9.46;78.87
58662;BME280;44432;49.786;22.760;2022-10-17T01:12:01;100476.09;;;9.46;79.02
58662;BME280;44432;49.786;22.760;2022-10-17T01:14:44;100479.29;;;9.42;79.01
58662;BME280;44432;49.786;22.760;2022-10-17T01:17:23;100477.59;;;9.39;78.97
58662;BME280;44432;49.786;22.760;2022-10-17T01:20:21;100476.73;;;9.34;79.05
58662;BME280;44432;49.786;22.760;2022-10-17T01:23:12;100474.33;;;9.29;79.33
58662;BME280;44432;49.786;22.760;2022-10-17T01:25:53;100479.00;;;9.25;79.42
58662;BME280;44432;49.786;22.760;2022-10-17T01:28:41;100484.98;;;9.22;79.45
58662;BME280;44432;49.786;22.760;2022-10-17T01:31:16;100483.85;;;9.18;79.63
58662;BME280;44432;49.786;22.760;2022-10-17T01:33:59;100483.15;;;9.18;79.74
58662;BME280;44432;49.786;22.760;2022-10-17T01:36:38;100482.14;;;9.17;79.79
58662;BME280;44432;49.786;22.760;2022-10-17T01:39:16;100486.62;;;9.17;79.73
58662;BME280;44432;49.786;22.760;2022-10-17T01:41:54;100487.54;;;9.16;79.83
58662;BME280;44432;49.786;22.760;2022-10-17T01:44:33;100489.81;;;9.16;79.84
58662;BME280;44432;49.786;22.760;2022-10-17T01:47:09;100497.83;;;9.15;79.91
58662;BME280;44432;49.786;22.760;2022-10-17T01:49:44;100497.31;;;9.14;79.87
58662;BME280;44432;49.786;22.760;2022-10-17T01:52:19;100499.52;;;9.13;79.85
58662;BME280;44432;49.786;22.760;2022-10-17T01:54:54;100500.16;;;9.09;79.97
58662;BME280;44432;49.786;22.760;2022-10-17T01:57:31;100504.31;;;9.09;80.05
58662;BME280;44432;49.786;22.760;2022-10-17T02:00:03;100502.54;;;9.10;80.09
58662;BME280;44432;49.786;22.760;2022-10-17T02:02:35;100501.18;;;9.09;80.05
58662;BME280;44432;49.786;22.760;2022-10-17T02:05:06;100500.98;;;9.10;80.41
58662;BME280;44432;49.786;22.760;2022-10-17T02:07:38;100504.35;;;9.09;80.23
58662;BME280;44432;49.786;22.760;2022-10-17T02:10:17;100493.32;;;9.07;80.20
58662;BME280;44432;49.786;22.760;2022-10-17T02:12:55;100498.64;;;9.04;80.12
58662;BME280;44432;49.786;22.760;2022-10-17T02:15:45;100499.52;;;8.99;80.04
58662;BME280;44432;49.786;22.760;2022-10-17T02:18:36;100501.62;;;8.94;80.20
58662;BME280;44432;49.786;22.760;2022-10-17T02:21:17;100504.98;;;8.93;80.34
58662;BME280;44432;49.786;22.760;2022-10-17T02:23:54;100505.82;;;8.92;80.63
58662;BME280;44432;49.786;22.760;2022-10-17T02:26:31;100507.27;;;8.91;80.67
58662;BME280;44432;49.786;22.760;2022-10-17T02:29:07;100501.73;;;8.91;80.71
58662;BME280;44432;49.786;22.760;2022-10-17T02:31:42;100499.64;;;8.89;80.68
58662;BME280;44432;49.786;22.760;2022-10-17T02:34:17;100499.73;;;8.90;80.78
58662;BME280;44432;49.786;22.760;2022-10-17T02:36:52;100506.78;;;8.90;80.73
58662;BME280;44432;49.786;22.760;2022-10-17T02:39:27;100506.16;;;8.89;80.72
58662;BME280;44432;49.786;22.760;2022-10-17T02:41:57;100512.35;;;8.88;80.86
58662;BME280;44432;49.786;22.760;2022-10-17T02:44:32;100517.92;;;8.85;80.86
58662;BME280;44432;49.786;22.760;2022-10-17T02:47:06;100519.27;;;8.84;80.98
58662;BME280;44432;49.786;22.760;2022-10-17T02:49:42;100519.51;;;8.83;80.85
58662;BME280;44432;49.786;22.760;2022-10-17T02:52:19;100517.70;;;8.82;80.95
58662;BME280;44432;49.786;22.760;2022-10-17T02:54:56;100519.19;;;8.82;80.93
58662;BME280;44432;49.786;22.760;2022-10-17T02:57:32;100519.78;;;8.80;81.01
58662;BME280;44432;49.786;22.760;2022-10-17T03:00:11;100516.95;;;8.78;81.10
58662;BME280;44432;49.786;22.760;2022-10-17T03:02:44;100518.91;;;8.76;81.08
58662;BME280;44432;49.786;22.760;2022-10-17T03:05:17;100522.41;;;8.75;81.05
58662;BME280;44432;49.786;22.760;2022-10-17T03:07:46;100518.52;;;8.74;81.14
58662;BME280;44432;49.786;22.760;2022-10-17T03:10:17;100514.74;;;8.71;81.55
58662;BME280;44432;49.786;22.760;2022-10-17T03:12:48;100522.98;;;8.72;81.55
58662;BME280;44432;49.786;22.760;2022-10-17T03:15:19;100526.60;;;8.71;81.57
58662;BME280;44432;49.786;22.760;2022-10-17T03:17:49;100528.52;;;8.71;81.66
58662;BME280;44432;49.786;22.760;2022-10-17T03:20:20;100529.86;;;8.71;81.62
58662;BME280;44432;49.786;22.760;2022-10-17T03:22:50;100533.31;;;8.72;81.66
58662;BME280;44432;49.786;22.760;2022-10-17T03:25:21;100540.61;;;8.72;81.67
58662;BME280;44432;49.786;22.760;2022-10-17T03:27:52;100538.51;;;8.72;81.96
58662;BME280;44432;49.786;22.760;2022-10-17T03:30:22;100536.56;;;8.72;81.94
58662;BME280;44432;49.786;22.760;2022-10-17T03:32:52;100540.71;;;8.71;81.86
58662;BME280;44432;49.786;22.760;2022-10-17T03:35:23;100543.38;;;8.71;81.87
58662;BME280;44432;49.786;22.760;2022-10-17T03:37:55;100549.58;;;8.71;81.82
58662;BME280;44432;49.786;22.760;2022-10-17T03:40:25;100552.80;;;8.69;81.90
58662;BME280;44432;49.786;22.760;2022-10-17T03:42:56;100556.45;;;8.70;82.16
58662;BME280;44432;49.786;22.760;2022-10-17T03:45:26;100557.92;;;8.71;82.33
58662;BME280;44432;49.786;22.760;2022-10-17T03:47:58;100563.05;;;8.73;82.21
58662;BME280;44432;49.786;22.760;2022-10-17T03:50:29;100562.52;;;8.73;82.21
58662;BME280;44432;49.786;22.760;2022-10-17T03:52:59;100564.67;;;8.72;82.34
58662;BME280;44432;49.786;22.760;2022-10-17T03:55:30;100558.41;;;8.72;82.09
58662;BME280;44432;49.786;22.760;2022-10-17T03:58:00;100559.38;;;8.71;82.24
58662;BME280;44432;49.786;22.760;2022-10-17T04:00:31;100561.02;;;8.70;82.06
58662;BME280;44432;49.786;22.760;2022-10-17T04:03:01;100564.05;;;8.70;82.25
58662;BME280;44432;49.786;22.760;2022-10-17T04:05:32;100570.89;;;8.70;82.41
58662;BME280;44432;49.786;22.760;2022-10-17T04:08:02;100576.89;;;8.70;82.24
58662;BME280;44432;49.786;22.760;2022-10-17T04:10:33;100578.73;;;8.69;82.37
58662;BME280;44432;49.786;22.760;2022-10-17T04:13:03;100580.70;;;8.69;82.40
58662;BME280;44432;49.786;22.760;2022-10-17T04:15:34;100580.27;;;8.68;82.34
58662;BME280;44432;49.786;22.760;2022-10-17T04:18:05;100588.25;;;8.67;82.32
58662;BME280;44432;49.786;22.760;2022-10-17T04:20:36;100591.31;;;8.65;82.46
58662;BME280;44432;49.786;22.760;2022-10-17T04:23:06;100591.27;;;8.63;82.57
58662;BME280;44432;49.786;22.760;2022-10-17T04:25:37;100589.93;;;8.63;82.40
58662;BME280;44432;49.786;22.760;2022-10-17T04:28:08;100588.09;;;8.62;82.46
58662;BME280;44432;49.786;22.760;2022-10-17T04:30:39;100586.73;;;8.62;82.46
58662;BME280;44432;49.786;22.760;2022-10-17T04:33:09;100588.65;;;8.62;82.70
58662;BME280;44432;49.786;22.760;2022-10-17T04:35:40;100591.71;;;8.63;82.81
58662;BME280;44432;49.786;22.760;2022-10-17T04:38:10;100596.09;;;8.63;82.67
58662;BME280;44432;49.786;22.760;2022-10-17T04:40:41;100595.20;;;8.63;82.74
58662;BME280;44432;49.786;22.760;2022-10-17T04:43:11;100595.86;;;8.63;82.69
58662;BME280;44432;49.786;22.760;2022-10-17T04:45:42;100600.85;;;8.64;82.77
58662;BME280;44432;49.786;22.760;2022-10-17T04:48:12;100603.23;;;8.65;82.85
58662;BME280;44432;49.786;22.760;2022-10-17T04:50:53;100607.54;;;8.66;82.61
58662;BME280;44432;49.786;22.760;2022-10-17T04:53:25;100608.98;;;8.65;82.64
58662;BME280;44432;49.786;22.760;2022-10-17T04:55:56;100615.30;;;8.65;82.54
58662;BME280;44432;49.786;22.760;2022-10-17T04:58:27;100614.91;;;8.66;82.69
58662;BME280;44432;49.786;22.760;2022-10-17T05:00:59;100617.30;;;8.66;82.79
58662;BME280;44432;49.786;22.760;2022-10-17T05:03:34;100615.86;;;8.66;82.75
58662;BME280;44432;49.786;22.760;2022-10-17T05:06:07;100616.22;;;8.66;82.74
58662;BME280;44432;49.786;22.760;2022-10-17T05:08:38;100622.05;;;8.68;82.72
58662;BME280;44432;49.786;22.760;2022-10-17T05:11:16;100625.93;;;8.69;82.85
58662;BME280;44432;49.786;22.760;2022-10-17T05:13:50;100622.20;;;8.69;82.74
58662;BME280;44432;49.786;22.760;2022-10-17T05:16:22;100629.02;;;8.73;83.03
58662;BME280;44432;49.786;22.760;2022-10-17T05:18:54;100634.55;;;8.75;82.93
58662;BME280;44432;49.786;22.760;2022-10-17T05:21:26;100640.55;;;8.80;82.85
58662;BME280;44432;49.786;22.760;2022-10-17T05:23:57;100641.73;;;8.83;82.76
58662;BME280;44432;49.786;22.760;2022-10-17T05:26:28;100642.48;;;8.86;82.68
58662;BME280;44432;49.786;22.760;2022-10-17T05:28:59;100646.33;;;8.91;82.53
58662;BME280;44432;49.786;22.760;2022-10-17T05:31:31;100650.86;;;8.95;82.48
58662;BME280;44432;49.786;22.760;2022-10-17T05:34:02;100653.88;;;8.97;82.43
58662;BME280;44432;49.786;22.760;2022-10-17T05:36:33;100661.73;;;9.01;82.52
58662;BME280;44432;49.786;22.760;2022-10-17T05:39:04;100665.79;;;9.06;82.46
58662;BME280;44432;49.786;22.760;2022-10-17T05:41:34;100664.42;;;9.10;82.51
58662;BME280;44432;49.786;22.760;2022-10-17T05:44:05;100666.98;;;9.16;82.48
58662;BME280;44432;49.786;22.760;2022-10-17T05:46:35;100670.21;;;9.21;82.46
58662;BME280;44432;49.786;22.760;2022-10-17T05:49:08;100674.59;;;9.26;82.41
58662;BME280;44432;49.786;22.760;2022-10-17T05:51:38;100678.88;;;9.32;82.32
58662;BME280;44432;49.786;22.760;2022-10-17T05:54:09;100682.95;;;9.38;82.19
58662;BME280;44432;49.786;22.760;2022-10-17T05:56:40;100682.02;;;9.43;82.07
58662;BME280;44432;49.786;22.760;2022-10-17T05:59:10;100680.27;;;9.49;82.14
58662;BME280;44432;49.786;22.760;2022-10-17T06:01:41;100684.20;;;9.57;82.17
58662;BME280;44432;49.786;22.760;2022-10-17T06:04:11;100686.01;;;9.65;81.99
58662;BME280;44432;49.786;22.760;2022-10-17T06:06:42;100685.48;;;9.73;81.96
58662;BME280;44432;49.786;22.760;2022-10-17T06:09:12;100690.58;;;9.82;82.04
58662;BME280;44432;49.786;22.760;2022-10-17T06:11:43;100693.09;;;9.93;82.01
58662;BME280;44432;49.786;22.760;2022-10-17T06:14:13;100697.98;;;10.04;81.88
58662;BME280;44432;49.786;22.760;2022-10-17T06:16:44;100700.77;;;10.15;81.78
58662;BME280;44432;49.786;22.760;2022-10-17T06:19:15;100700.11;;;10.26;81.71
58662;BME280;44432;49.786;22.760;2022-10-17T06:21:45;100705.83;;;10.37;81.67
58662;BME280;44432;49.786;22.760;2022-10-17T06:24:16;100707.27;;;10.48;81.58
58662;BME280;44432;49.786;22.760;2022-10-17T06:26:46;100712.63;;;10.60;81.32
58662;BME280;44432;49.786;22.760;2022-10-17T06:29:18;100714.19;;;10.71;81.18
58662;BME280;44432;49.786;22.760;2022-10-17T06:31:48;100713.94;;;10.80;80.74
58662;BME280;44432;49.786;22.760;2022-10-17T06:34:19;100713.30;;;10.90;80.81
58662;BME280;44432;49.786;22.760;2022-10-17T06:36:50;100710.16;;;11.00;80.71
58662;BME280;44432;49.786;22.760;2022-10-17T06:39:20;100712.48;;;11.09;80.33
58662;BME280;44432;49.786;22.760;2022-10-17T06:41:51;100716.09;;;11.22;80.22
58662;BME280;44432;49.786;22.760;2022-10-17T06:44:22;100719.83;;;11.33;80.19
58662;BME280;44432;49.786;22.760;2022-10-17T06:46:57;100718.67;;;11.46;79.96
58662;BME280;44432;49.786;22.760;2022-10-17T06:49:27;100713.85;;;11.57;79.75
58662;BME280;44432;49.786;22.760;2022-10-17T06:51:58;100718.05;;;11.70;79.74
58662;BME280;44432;49.786;22.760;2022-10-17T06:54:28;100717.96;;;11.83;79.89
58662;BME280;44432;49.786;22.760;2022-10-17T06:56:59;100722.11;;;11.97;79.63
58662;BME280;44432;49.786;22.760;2022-10-17T06:59:29;100719.61;;;12.08;79.31
58662;BME280;44432;49.786;22.760;2022-10-17T07:02:00;100721.34;;;12.22;79.14
58662;BME280;44432;49.786;22.760;2022-10-17T07:04:31;100720.20;;;12.33;78.98
58662;BME280;44432;49.786;22.760;2022-10-17T07:07:02;100717.99;;;12.47;78.81
58662;BME280;44432;49.786;22.760;2022-10-17T07:09:33;100721.08;;;12.60;78.53
58662;BME280;44432;49.786;22.760;2022-10-17T07:12:04;100724.36;;;12.73;78.33
58662;BME280;44432;49.786;22.760;2022-10-17T07:14:36;100723.90;;;12.87;77.90
58662;BME280;44432;49.786;22.760;2022-10-17T07:17:07;100722.42;;;13.00;77.68
58662;BME280;44432;49.786;22.760;2022-10-17T07:19:38;100716.86;;;13.13;77.52
58662;BME280;44432;49.786;22.760;2022-10-17T07:22:11;100721.91;;;13.27;77.37
58662;BME280;44432;49.786;22.760;2022-10-17T07:24:42;100720.36;;;13.40;77.07
58662;BME280;44432;49.786;22.760;2022-10-17T07:27:13;100722.45;;;13.54;76.91
58662;BME280;44432;49.786;22.760;2022-10-17T07:29:44;100719.31;;;13.66;76.53
58662;BME280;44432;49.786;22.760;2022-10-17T07:32:15;100722.60;;;13.80;76.29
58662;BME280;44432;49.786;22.760;2022-10-17T07:34:45;100717.05;;;13.93;75.75
58662;BME280;44432;49.786;22.760;2022-10-17T07:37:16;100715.30;;;14.06;75.41
58662;BME280;44432;49.786;22.760;2022-10-17T07:39:46;100713.30;;;14.20;75.12
58662;BME280;44432;49.786;22.760;2022-10-17T07:42:17;100719.70;;;14.33;74.78
58662;BME280;44432;49.786;22.760;2022-10-17T07:44:48;100715.01;;;14.46;74.50
58662;BME280;44432;49.786;22.760;2022-10-17T07:47:19;100718.36;;;14.60;74.26
58662;BME280;44432;49.786;22.760;2022-10-17T07:49:50;100719.34;;;14.72;74.05
58662;BME280;44432;49.786;22.760;2022-10-17T07:52:20;100725.03;;;14.85;73.89
58662;BME280;44432;49.786;22.760;2022-10-17T07:54:51;100726.13;;;14.98;73.67
58662;BME280;44432;49.786;22.760;2022-10-17T07:57:22;100726.20;;;15.11;73.37
58662;BME280;44432;49.786;22.760;2022-10-17T07:59:52;100722.24;;;15.25;72.97
58662;BME280;44432;49.786;22.760;2022-10-17T08:02:24;100726.14;;;15.41;72.54
58662;BME280;44432;49.786;22.760;2022-10-17T08:04:55;100723.77;;;15.56;72.18
58662;BME280;44432;49.786;22.760;2022-10-17T08:07:26;100721.51;;;15.70;71.88
58662;BME280;44432;49.786;22.760;2022-10-17T08:09:56;100717.57;;;15.83;71.59
58662;BME280;44432;49.786;22.760;2022-10-17T08:12:27;100717.95;;;15.96;71.30
58662;BME280;44432;49.786;22.760;2022-10-17T08:15:00;100716.70;;;16.11;71.00
58662;BME280;44432;49.786;22.760;2022-10-17T08:17:30;100718.91;;;16.24;70.51
58662;BME280;44432;49.786;22.760;2022-10-17T08:20:04;100718.18;;;16.37;69.61
58662;BME280;44432;49.786;22.760;2022-10-17T08:22:35;100719.36;;;16.50;68.82
58662;BME280;44432;49.786;22.760;2022-10-17T08:25:07;100721.40;;;16.63;68.33
58662;BME280;44432;49.786;22.760;2022-10-17T08:27:38;100721.21;;;16.77;67.71
58662;BME280;44432;49.786;22.760;2022-10-17T08:30:10;100721.68;;;16.90;67.04
58662;BME280;44432;49.786;22.760;2022-10-17T08:32:41;100721.70;;;17.01;66.12
58662;BME280;44432;49.786;22.760;2022-10-17T08:35:12;100722.67;;;17.11;65.97
58662;BME280;44432;49.786;22.760;2022-10-17T08:37:44;100720.33;;;17.21;65.02
58662;BME280;44432;49.786;22.760;2022-10-17T08:40:18;100717.20;;;17.29;64.66
58662;BME280;44432;49.786;22.760;2022-10-17T08:43:03;100717.86;;;17.41;64.50
58662;BME280;44432;49.786;22.760;2022-10-17T08:45:40;100719.77;;;17.51;64.07
58662;BME280;44432;49.786;22.760;2022-10-17T08:48:16;100717.30;;;17.62;63.81
58662;BME280;44432;49.786;22.760;2022-10-17T08:50:50;100714.51;;;17.73;63.34
58662;BME280;44432;49.786;22.760;2022-10-17T08:53:26;100713.81;;;17.82;63.07
58662;BME280;44432;49.786;22.760;2022-10-17T08:56:04;100710.27;;;17.92;62.45
58662;BME280;44432;49.786;22.760;2022-10-17T08:58:38;100716.00;;;18.04;62.09
58662;BME280;44432;49.786;22.760;2022-10-17T09:01:19;100711.05;;;18.11;61.38
58662;BME280;44432;49.786;22.760;2022-10-17T09:06:46;100717.02;;;18.31;60.50
58662;BME280;44432;49.786;22.760;2022-10-17T09:09:33;100720.59;;;18.39;60.40
58662;BME280;44432;49.786;22.760;2022-10-17T09:12:16;100721.92;;;18.47;59.86
58662;BME280;44432;49.786;22.760;2022-10-17T09:15:07;100728.94;;;18.56;59.38
58662;BME280;44432;49.786;22.760;2022-10-17T09:17:50;100726.45;;;18.65;59.21
58662;BME280;44432;49.786;22.760;2022-10-17T09:20:24;100728.73;;;18.74;59.09
58662;BME280;44432;49.786;22.760;2022-10-17T09:22:59;100723.94;;;18.83;58.92
58662;BME280;44432;49.786;22.760;2022-10-17T09:25:34;100726.09;;;18.93;58.72
58662;BME280;44432;49.786;22.760;2022-10-17T09:28:16;100728.09;;;19.03;58.41
58662;BME280;44432;49.786;22.760;2022-10-17T09:30:50;100728.21;;;19.10;57.63
58662;BME280;44432;49.786;22.760;2022-10-17T09:33:27;100727.79;;;19.18;57.73
58662;BME280;44432;49.786;22.760;2022-10-17T09:35:59;100726.26;;;19.26;57.39
58662;BME280;44432;49.786;22.760;2022-10-17T09:38:38;100726.84;;;19.31;56.92
58662;BME280;44432;49.786;22.760;2022-10-17T09:41:17;100723.23;;;19.39;57.09
58662;BME280;44432;49.786;22.760;2022-10-17T09:43:48;100720.55;;;19.49;56.90
58662;BME280;44432;49.786;22.760;2022-10-17T09:46:26;100720.93;;;19.55;56.63
58662;BME280;44432;49.786;22.760;2022-10-17T09:49:04;100723.76;;;19.65;56.43
58662;BME280;44432;49.786;22.760;2022-10-17T09:51:37;100720.23;;;19.74;56.25
58662;BME280;44432;49.786;22.760;2022-10-17T09:54:16;100718.11;;;19.82;56.09
58662;BME280;44432;49.786;22.760;2022-10-17T09:57:01;100718.27;;;19.90;55.85
58662;BME280;44432;49.786;22.760;2022-10-17T09:59:33;100714.23;;;19.97;55.46
58662;BME280;44432;49.786;22.760;2022-10-17T10:02:13;100713.14;;;20.04;55.11
58662;BME280;44432;49.786;22.760;2022-10-17T10:05:02;100712.96;;;20.10;54.89
58662;BME280;44432;49.786;22.760;2022-10-17T10:07:36;100712.17;;;20.16;54.73
58662;BME280;44432;49.786;22.760;2022-10-17T10:10:22;100711.48;;;20.22;54.50
58662;BME280;44432;49.786;22.760;2022-10-17T10:13:05;100711.48;;;20.29;53.98
58662;BME280;44432;49.786;22.760;2022-10-17T10:15:38;100711.94;;;20.36;53.66
58662;BME280;44432;49.786;22.760;2022-10-17T10:18:30;100716.44;;;20.40;53.50
58662;BME280;44432;49.786;22.760;2022-10-17T10:21:10;100713.30;;;20.42;52.95
58662;BME280;44432;49.786;22.760;2022-10-17T10:23:42;100709.55;;;20.45;53.03
58662;BME280;44432;49.786;22.760;2022-10-17T10:26:21;100713.52;;;20.51;52.81
58662;BME280;44432;49.786;22.760;2022-10-17T10:28:55;100712.59;;;20.57;52.83
58662;BME280;44432;49.786;22.760;2022-10-17T10:31:35;100711.95;;;20.64;52.70
58662;BME280;44432;49.786;22.760;2022-10-17T10:34:17;100700.20;;;20.70;52.75
58662;BME280;44432;49.786;22.760;2022-10-17T10:37:02;100694.30;;;20.77;52.63
58662;BME280;44432;49.786;22.760;2022-10-17T10:39:41;100691.73;;;20.84;52.67
58662;BME280;44432;49.786;22.760;2022-10-17T10:42:21;100688.94;;;20.90;52.40
58662;BME280;44432;49.786;22.760;2022-10-17T10:44:54;100693.63;;;20.95;51.81
58662;BME280;44432;49.786;22.760;2022-10-17T10:47:28;100694.23;;;20.96;51.66
58662;BME280;44432;49.786;22.760;2022-10-17T10:50:27;100692.15;;;20.97;51.59
58662;BME280;44432;49.786;22.760;2022-10-17T10:53:11;100690.50;;;21.01;51.63
58662;BME280;44432;49.786;22.760;2022-10-17T10:55:49;100690.81;;;21.05;51.23
58662;BME280;44432;49.786;22.760;2022-10-17T10:58:36;100689.48;;;21.09;51.08
58662;BME280;44432;49.786;22.760;2022-10-17T11:01:13;100689.27;;;21.13;50.58
58662;BME280;44432;49.786;22.760;2022-10-17T11:04:06;100683.88;;;21.15;50.45
58662;BME280;44432;49.786;22.760;2022-10-17T11:06:42;100679.51;;;21.18;50.31
58662;BME280;44432;49.786;22.760;2022-10-17T11:09:23;100675.83;;;21.20;49.72
58662;BME280;44432;49.786;22.760;2022-10-17T11:12:01;100674.32;;;21.19;49.81
58662;BME280;44432;49.786;22.760;2022-10-17T11:14:40;100672.14;;;21.21;49.87
58662;BME280;44432;49.786;22.760;2022-10-17T11:17:19;100669.94;;;21.21;49.51
58662;BME280;44432;49.786;22.760;2022-10-17T11:19:58;100662.09;;;21.23;49.95
58662;BME280;44432;49.786;22.760;2022-10-17T11:22:33;100663.70;;;21.28;49.52
58662;BME280;44432;49.786;22.760;2022-10-17T11:25:12;100666.89;;;21.29;49.33
58662;BME280;44432;49.786;22.760;2022-10-17T11:27:45;100666.59;;;21.31;49.09
58662;BME280;44432;49.786;22.760;2022-10-17T11:30:16;100666.24;;;21.33;49.19
58662;BME280;44432;49.786;22.760;2022-10-17T11:32:51;100670.11;;;21.37;49.34
58662;BME280;44432;49.786;22.760;2022-10-17T11:35:26;100667.33;;;21.41;49.19
58662;BME280;44432;49.786;22.760;2022-10-17T11:38:02;100661.51;;;21.44;48.90
58662;BME280;44432;49.786;22.760;2022-10-17T11:40:37;100661.05;;;21.47;48.74
58662;BME280;44432;49.786;22.760;2022-10-17T11:43:16;100661.80;;;21.50;48.72
58662;BME280;44432;49.786;22.760;2022-10-17T11:45:54;100658.66;;;21.53;48.75
58662;BME280;44432;49.786;22.760;2022-10-17T11:48:28;100659.34;;;21.57;48.79
58662;BME280;44432;49.786;22.760;2022-10-17T11:51:06;100658.04;;;21.60;48.59
58662;BME280;44432;49.786;22.760;2022-10-17T11:53:46;100658.05;;;21.62;48.46
58662;BME280;44432;49.786;22.760;2022-10-17T11:56:23;100654.85;;;21.64;48.34
58662;BME280;44432;49.786;22.760;2022-10-17T11:59:01;100651.44;;;21.66;48.50
58662;BME280;44432;49.786;22.760;2022-10-17T12:01:43;100651.27;;;21.71;48.44
58662;BME280;44432;49.786;22.760;2022-10-17T12:04:23;100648.98;;;21.73;48.22
58662;BME280;44432;49.786;22.760;2022-10-17T12:07:04;100644.71;;;21.75;48.07
58662;BME280;44432;49.786;22.760;2022-10-17T12:09:44;100643.98;;;21.77;48.23
58662;BME280;44432;49.786;22.760;2022-10-17T12:12:26;100642.39;;;21.79;48.24
58662;BME280;44432;49.786;22.760;2022-10-17T12:15:27;100644.94;;;21.82;48.04
58662;BME280;44432;49.786;22.760;2022-10-17T12:17:59;100643.44;;;21.85;48.06
58662;BME280;44432;49.786;22.760;2022-10-17T12:20:33;100644.54;;;21.87;47.74
58662;BME280;44432;49.786;22.760;2022-10-17T12:23:19;100644.66;;;21.88;47.64
58662;BME280;44432;49.786;22.760;2022-10-17T12:25:53;100642.56;;;21.89;47.41
58662;BME280;44432;49.786;22.760;2022-10-17T12:28:29;100643.54;;;21.90;47.34
58662;BME280;44432;49.786;22.760;2022-10-17T12:31:03;100642.91;;;21.92;47.32
58662;BME280;44432;49.786;22.760;2022-10-17T12:33:37;100643.15;;;21.94;47.13
58662;BME280;44432;49.786;22.760;2022-10-17T12:36:46;100634.77;;;21.96;47.24
58662;BME280;44432;49.786;22.760;2022-10-17T12:39:49;100635.02;;;21.98;47.29
58662;BME280;44432;49.786;22.760;2022-10-17T12:42:46;100633.45;;;22.01;47.35
58662;BME280;44432;49.786;22.760;2022-10-17T12:45:47;100635.33;;;22.04;47.22
58662;BME280;44432;49.786;22.760;2022-10-17T12:51:19;100633.84;;;22.07;47.01
58662;BME280;44432;49.786;22.760;2022-10-17T12:53:55;100633.42;;;22.09;46.85
58662;BME280;44432;49.786;22.760;2022-10-17T12:56:35;100631.98;;;22.10;46.76
58662;BME280;44432;49.786;22.760;2022-10-17T12:59:14;100632.32;;;22.11;46.52
58662;BME280;44432;49.786;22.760;2022-10-17T13:01:47;100627.11;;;22.11;46.33
58662;BME280;44432;49.786;22.760;2022-10-17T13:04:19;100627.60;;;22.12;46.43
58662;BME280;44432;49.786;22.760;2022-10-17T13:06:53;100624.27;;;22.13;46.26
58662;BME280;44432;49.786;22.760;2022-10-17T13:09:28;100626.10;;;22.14;46.21
58662;BME280;44432;49.786;22.760;2022-10-17T13:12:01;100628.25;;;22.14;46.05
58662;BME280;44432;49.786;22.760;2022-10-17T13:14:33;100628.10;;;22.15;46.08
58662;BME280;44432;49.786;22.760;2022-10-17T13:17:11;100628.38;;;22.15;46.07
58662;BME280;44432;49.786;22.760;2022-10-17T13:19:50;100628.23;;;22.16;45.89
58662;BME280;44432;49.786;22.760;2022-10-17T13:22:22;100625.36;;;22.15;45.66
58662;BME280;44432;49.786;22.760;2022-10-17T13:24:52;100624.40;;;22.15;45.79
58662;BME280;44432;49.786;22.760;2022-10-17T13:27:25;100624.66;;;22.16;45.82
58662;BME280;44432;49.786;22.760;2022-10-17T13:29:58;100623.76;;;22.16;45.55